100LL.CA
Aviation Fuel Pricing for Canadians
Please upgrade your browser - Tested with IE9, FireFox, Chrome, Safari

Fuel Prices Airport Info Airport List METAR / TAF Kneeboard RSS

Reference Airport: Chatham-Kent, ON
N 42 18 22   W 082 04 54

CYCK Chatham-Kent, ON
WEATHER
METARCYCK 271900Z AUTO 16009KT 9SM FEW038 20/13 A2990 RMK SLP128 DENSITY ALT 1300FT
REF N 42 18 22  W 082 04 54    6SE    8W (2013)
UTC-5(4)    Elev 645    A5000 LO6 HI5 CAP
OPR City 519-676-3455
Cert Opr
PFA-1 C-2,3,,5 D-4,6
CUSTAOE/CAN
FLT PLN NOTAM FILE CYQG
FIC London 866-WXBRIEF (Toll free within Canada) or 866-541-4104 (Toll free within Canada & USA)
WXMETAR AUTO H24 (see COMM) WxCam
SERVICES Call out chg may be levied outside hrs of ops.
FUEL100LL, JA-1
PRICES100LL public: 2.150; JETA: 1.921; current as of 2014-06-02.
OIL80, 100, 15W50, 20W50
S4,5,6
RWY DATARwy 06(056)/24(236) 5502x75 asphalt Thld 06 displ 500', Thld 24 displ 500'.
RCROpr 13-22Z
LIGHTING06-AS(TE ME) P1, 24-AS(TE ME) P1 ARCAL-123.2 type K
COMM
ATFUNICOM ltd hrs O/T tfc 123.2 5NM 3700 ASL
AWOS122.975
NAV
PROGlider activities Apr - Oct. Pilots are requested to avoid flt below 2000 ASL when flying over the Jack Miner Bird Sanctuary (Kingsville, Ont N42 04 00 W82 45 00) & over Point Pelee National Park.
CAUTIONWildlife frequently on rwys. Numerous wind turbines in vic.
Effective 0901Z 0901Z 27 April 2017 to 0901Z 22 June 2017